createdAt,value
2019-01-25T00:00:52.058Z,1015.71
2019-01-25T00:01:52.065Z,1015.71
2019-01-25T00:02:52.016Z,1015.7
2019-01-25T00:03:52.011Z,1015.69
2019-01-25T00:04:52.185Z,1015.69
2019-01-25T00:05:52.130Z,1015.72
2019-01-25T00:06:52.013Z,1015.72
2019-01-25T00:07:52.033Z,1015.72
2019-01-25T00:08:52.039Z,1015.74
2019-01-25T00:09:58.921Z,1015.72
2019-01-25T00:10:51.986Z,1015.71
2019-01-25T00:11:51.946Z,1015.74
2019-01-25T00:12:52.005Z,1015.75
2019-01-25T00:13:52.252Z,1015.76
2019-01-25T00:14:51.986Z,1015.71
2019-01-25T00:15:51.949Z,1015.76
2019-01-25T00:16:51.941Z,1015.77
2019-01-25T00:17:51.963Z,1015.8
2019-01-25T00:18:51.947Z,1015.78
2019-01-25T00:19:51.648Z,1015.76
2019-01-25T00:20:51.903Z,1015.82
2019-01-25T00:21:52.042Z,1015.82
2019-01-25T00:22:51.931Z,1015.82
2019-01-25T00:23:52.016Z,1015.83
2019-01-25T00:24:52.109Z,1015.8
2019-01-25T00:25:52.233Z,1015.79
2019-01-25T00:26:52.072Z,1015.75
2019-01-25T00:27:51.846Z,1015.77
2019-01-25T00:28:52.100Z,1015.79
2019-01-25T00:29:52.061Z,1015.78
2019-01-25T00:30:52.160Z,1015.84
2019-01-25T00:31:51.917Z,1015.82
2019-01-25T00:32:52.180Z,1015.79
2019-01-25T00:33:52.018Z,1015.78
2019-01-25T00:34:52.085Z,1015.8
2019-01-25T00:35:52.059Z,1015.8
2019-01-25T00:36:52.454Z,1015.77
2019-01-25T00:37:51.849Z,1015.76
2019-01-25T00:38:52.221Z,1015.78
2019-01-25T00:39:52.073Z,1015.77
2019-01-25T00:40:52.129Z,1015.78
2019-01-25T00:41:51.892Z,1015.81
2019-01-25T00:42:52.245Z,1015.82
2019-01-25T00:43:53.645Z,1015.81
2019-01-25T00:44:52.160Z,1015.76
2019-01-25T00:45:52.163Z,1015.76
2019-01-25T00:46:52.168Z,1015.76
2019-01-25T00:47:51.918Z,1015.78
2019-01-25T00:48:51.825Z,1015.79
2019-01-25T00:49:52.232Z,1015.84
2019-01-25T00:50:51.932Z,1015.77
2019-01-25T00:51:52.144Z,1015.77
2019-01-25T00:52:52.139Z,1015.75
2019-01-25T00:53:52.122Z,1015.75
2019-01-25T00:54:51.894Z,1015.75
2019-01-25T00:55:52.241Z,1015.79
2019-01-25T00:56:51.975Z,1015.75
2019-01-25T00:57:51.982Z,1015.78
2019-01-25T00:58:52.323Z,1015.8
2019-01-25T00:59:52.066Z,1015.8
2019-01-25T01:00:51.934Z,1015.82
2019-01-25T01:01:52.182Z,1015.84
2019-01-25T01:02:51.797Z,1015.88
2019-01-25T01:03:53.648Z,1015.88
2019-01-25T01:04:52.090Z,1015.88
2019-01-25T01:05:52.099Z,1015.93
2019-01-25T01:06:52.014Z,1015.91
2019-01-25T01:07:51.780Z,1015.92
2019-01-25T01:08:51.822Z,1015.93
2019-01-25T01:09:52.219Z,1015.95
2019-01-25T01:10:51.811Z,1015.97
2019-01-25T01:11:51.842Z,1015.97
2019-01-25T01:12:51.933Z,1016
2019-01-25T01:13:51.794Z,1016.02
2019-01-25T01:14:52.004Z,1016.05
2019-01-25T01:15:51.888Z,1016.07
2019-01-25T01:16:52.130Z,1016.02
2019-01-25T01:17:52.064Z,1016.05
2019-01-25T01:18:52.089Z,1016.05
2019-01-25T01:19:51.885Z,1016.07
2019-01-25T01:20:53.110Z,1016.1
2019-01-25T01:21:52.218Z,1016.12
2019-01-25T01:22:51.764Z,1016.12
2019-01-25T01:23:53.611Z,1016.12
2019-01-25T01:24:52.268Z,1016.13
2019-01-25T01:25:51.864Z,1016.13
2019-01-25T01:26:52.034Z,1016.17
2019-01-25T01:27:51.757Z,1016.18
2019-01-25T01:28:51.955Z,1016.16
2019-01-25T01:29:52.674Z,1016.17
2019-01-25T01:30:51.993Z,1016.23
2019-01-25T01:31:52.858Z,1016.2
2019-01-25T01:32:53.124Z,1016.19
2019-01-25T01:33:52.185Z,1016.17
2019-01-25T01:34:52.340Z,1016.19
2019-01-25T01:35:51.938Z,1016.21
2019-01-25T01:36:52.120Z,1016.19
2019-01-25T01:37:51.894Z,1016.17
2019-01-25T01:38:51.817Z,1016.22
2019-01-25T01:39:51.827Z,1016.26
2019-01-25T01:40:52.149Z,1016.25
2019-01-25T01:41:52.027Z,1016.21
2019-01-25T01:42:51.962Z,1016.21
2019-01-25T01:43:51.944Z,1016.19
2019-01-25T01:44:51.767Z,1016.21
2019-01-25T01:45:51.723Z,1016.19
2019-01-25T01:46:52.061Z,1016.17
2019-01-25T01:47:52.076Z,1016.2
2019-01-25T01:48:51.765Z,1016.23
2019-01-25T01:49:51.722Z,1016.24
2019-01-25T01:50:52.205Z,1016.28
2019-01-25T01:51:52.157Z,1016.27
2019-01-25T01:52:51.727Z,1016.31
2019-01-25T01:53:51.804Z,1016.28
2019-01-25T01:54:51.734Z,1016.29
2019-01-25T01:55:52.031Z,1016.3
2019-01-25T01:56:52.064Z,1016.27
2019-01-25T01:57:52.037Z,1016.31
2019-01-25T01:58:51.733Z,1016.3
2019-01-25T01:59:51.800Z,1016.31
2019-01-25T02:00:51.832Z,1016.35
2019-01-25T02:01:51.915Z,1016.34
2019-01-25T02:02:51.699Z,1016.33
2019-01-25T02:03:51.727Z,1016.31
2019-01-25T02:04:51.717Z,1016.32
2019-01-25T02:05:51.735Z,1016.28
2019-01-25T02:06:52.004Z,1016.33
2019-01-25T02:07:51.746Z,1016.29
2019-01-25T02:08:51.880Z,1016.3
2019-01-25T02:09:51.789Z,1016.3
2019-01-25T02:10:51.697Z,1016.26
2019-01-25T02:11:51.683Z,1016.26
2019-01-25T02:12:51.740Z,1016.24
2019-01-25T02:13:51.718Z,1016.3
2019-01-25T02:14:51.769Z,1016.3
2019-01-25T02:15:52.146Z,1016.32
2019-01-25T02:16:51.735Z,1016.3
2019-01-25T02:17:51.734Z,1016.33
2019-01-25T02:18:51.709Z,1016.31
2019-01-25T02:19:51.712Z,1016.33
2019-01-25T02:20:51.744Z,1016.32
2019-01-25T02:21:53.287Z,1016.31
2019-01-25T02:22:51.654Z,1016.29
2019-01-25T02:23:51.729Z,1016.26
2019-01-25T02:24:51.777Z,1016.25
2019-01-25T02:25:51.807Z,1016.21
2019-01-25T02:26:51.660Z,1016.18
2019-01-25T02:27:51.696Z,1016.14
2019-01-25T02:28:52.051Z,1016.15
2019-01-25T02:29:51.825Z,1016.13
2019-01-25T02:30:51.865Z,1016.18
2019-01-25T02:31:52.080Z,1016.22
2019-01-25T02:32:51.894Z,1016.26
2019-01-25T02:33:51.689Z,1016.25
2019-01-25T02:34:51.880Z,1016.26
2019-01-25T02:35:52.112Z,1016.31
2019-01-25T02:36:51.915Z,1016.25
2019-01-25T02:37:51.675Z,1016.25
2019-01-25T02:38:51.754Z,1016.23
2019-01-25T02:39:51.669Z,1016.22
2019-01-25T02:40:52.237Z,1016.2
2019-01-25T02:41:52.031Z,1016.2
2019-01-25T02:42:51.742Z,1016.18
2019-01-25T02:43:51.849Z,1016.15
2019-01-25T02:44:51.670Z,1016.17
2019-01-25T02:45:51.898Z,1016.21
2019-01-25T02:46:51.647Z,1016.25
2019-01-25T02:47:51.675Z,1016.27
2019-01-25T02:48:51.760Z,1016.29
2019-01-25T02:49:51.992Z,1016.27
2019-01-25T02:50:51.890Z,1016.27
2019-01-25T02:51:51.899Z,1016.2
2019-01-25T02:52:51.897Z,1016.22
2019-01-25T02:53:52.538Z,1016.19
2019-01-25T02:54:51.776Z,1016.17
2019-01-25T02:55:51.692Z,1016.13
2019-01-25T02:56:51.766Z,1016.17
2019-01-25T02:57:51.636Z,1016.24
2019-01-25T02:58:51.689Z,1016.24
2019-01-25T02:59:51.645Z,1016.28
2019-01-25T03:00:51.857Z,1016.24
2019-01-25T03:01:51.677Z,1016.27
2019-01-25T03:02:51.710Z,1016.27
2019-01-25T03:03:51.770Z,1016.22
2019-01-25T03:04:51.792Z,1016.23
2019-01-25T03:05:51.940Z,1016.23
2019-01-25T03:06:52.114Z,1016.24
2019-01-25T03:07:51.714Z,1016.23
2019-01-25T03:08:52.292Z,1016.25
2019-01-25T03:09:52.141Z,1016.23
2019-01-25T03:10:51.730Z,1016.24
2019-01-25T03:11:51.676Z,1016.2
2019-01-25T03:12:51.803Z,1016.25
2019-01-25T03:13:51.691Z,1016.23
2019-01-25T03:14:51.642Z,1016.25
2019-01-25T03:15:51.637Z,1016.27
2019-01-25T03:16:51.693Z,1016.24
2019-01-25T03:17:51.729Z,1016.27
2019-01-25T03:18:51.700Z,1016.24
2019-01-25T03:19:51.729Z,1016.28
2019-01-25T03:20:51.563Z,1016.22
2019-01-25T03:21:51.663Z,1016.23
2019-01-25T03:22:51.921Z,1016.16
2019-01-25T03:23:51.578Z,1016.15
2019-01-25T03:24:51.692Z,1016.14
2019-01-25T03:25:51.854Z,1016.14
2019-01-25T03:26:51.728Z,1016.16
2019-01-25T03:27:52.052Z,1016.17
2019-01-25T03:28:51.878Z,1016.22
2019-01-25T03:29:51.971Z,1016.19
2019-01-25T03:30:51.790Z,1016.24
2019-01-25T03:31:51.645Z,1016.26
2019-01-25T03:32:51.739Z,1016.32
2019-01-25T03:33:52.247Z,1016.34
2019-01-25T03:34:51.589Z,1016.33
2019-01-25T03:35:51.690Z,1016.3
2019-01-25T03:36:51.646Z,1016.34
2019-01-25T03:37:51.618Z,1016.33
2019-01-25T03:38:51.590Z,1016.32
2019-01-25T03:39:51.728Z,1016.33
2019-01-25T03:40:55.659Z,1016.31
2019-01-25T03:41:53.247Z,1016.29
2019-01-25T03:42:52.076Z,1016.32
2019-01-25T03:43:51.647Z,1016.32
2019-01-25T03:44:51.657Z,1016.35
2019-01-25T03:45:51.870Z,1016.34
2019-01-25T03:46:51.774Z,1016.34
2019-01-25T03:47:51.577Z,1016.38
2019-01-25T03:48:51.739Z,1016.35
2019-01-25T03:49:51.640Z,1016.3
2019-01-25T03:50:51.636Z,1016.3
2019-01-25T03:51:51.685Z,1016.33
2019-01-25T03:52:51.558Z,1016.36
2019-01-25T03:53:51.531Z,1016.32
2019-01-25T03:54:51.784Z,1016.35
2019-01-25T03:55:51.554Z,1016.39
2019-01-25T03:56:51.586Z,1016.37
2019-01-25T03:57:51.517Z,1016.41
2019-01-25T03:58:51.702Z,1016.43
2019-01-25T03:59:51.536Z,1016.46
2019-01-25T04:00:51.603Z,1016.42
2019-01-25T04:01:51.595Z,1016.47
2019-01-25T04:02:51.526Z,1016.49
2019-01-25T04:03:51.524Z,1016.48
2019-01-25T04:04:51.598Z,1016.47
2019-01-25T04:05:51.541Z,1016.48
2019-01-25T04:06:51.709Z,1016.45
2019-01-25T04:07:51.589Z,1016.42
2019-01-25T04:08:51.725Z,1016.43
2019-01-25T04:09:51.625Z,1016.43
2019-01-25T04:10:51.662Z,1016.44
2019-01-25T04:11:51.600Z,1016.39
2019-01-25T04:12:51.650Z,1016.39
2019-01-25T04:13:51.811Z,1016.36
2019-01-25T04:14:51.617Z,1016.4
2019-01-25T04:15:51.922Z,1016.45
2019-01-25T04:16:51.552Z,1016.47
2019-01-25T04:17:51.529Z,1016.5
2019-01-25T04:18:52.821Z,1016.49
2019-01-25T04:19:51.623Z,1016.52
2019-01-25T04:20:51.493Z,1016.52
2019-01-25T04:21:51.689Z,1016.55
2019-01-25T04:22:51.813Z,1016.49
2019-01-25T04:23:51.477Z,1016.52
2019-01-25T04:24:51.476Z,1016.54
2019-01-25T04:25:51.460Z,1016.5
2019-01-25T04:26:51.544Z,1016.51
2019-01-25T04:27:51.511Z,1016.53
2019-01-25T04:28:51.761Z,1016.54
2019-01-25T04:29:51.590Z,1016.57
2019-01-25T04:30:51.778Z,1016.58
2019-01-25T04:31:51.678Z,1016.6
2019-01-25T04:32:51.718Z,1016.59
2019-01-25T04:33:51.701Z,1016.59
2019-01-25T04:34:51.469Z,1016.56
2019-01-25T04:35:51.537Z,1016.58
2019-01-25T04:36:51.719Z,1016.58
2019-01-25T04:37:51.729Z,1016.55
2019-01-25T04:38:51.627Z,1016.56
2019-01-25T04:39:51.661Z,1016.54
2019-01-25T04:40:51.799Z,1016.57
2019-01-25T04:41:51.579Z,1016.56
2019-01-25T04:42:51.783Z,1016.58
2019-01-25T04:43:51.543Z,1016.6
2019-01-25T04:44:51.517Z,1016.61
2019-01-25T04:45:51.660Z,1016.57
2019-01-25T04:46:52.200Z,1016.62
2019-01-25T04:47:51.487Z,1016.56
2019-01-25T04:48:51.446Z,1016.56
2019-01-25T04:50:01.132Z,1016.57
2019-01-25T04:50:51.534Z,1016.59
2019-01-25T04:51:51.613Z,1016.59
2019-01-25T04:52:52.777Z,1016.57
2019-01-25T04:53:51.616Z,1016.56
2019-01-25T04:54:51.765Z,1016.54
2019-01-25T04:55:51.574Z,1016.6
2019-01-25T04:56:51.531Z,1016.54
2019-01-25T04:57:51.760Z,1016.52
2019-01-25T04:58:51.469Z,1016.53
2019-01-25T04:59:51.465Z,1016.48
2019-01-25T05:00:51.479Z,1016.49
2019-01-25T05:01:52.342Z,1016.48
2019-01-25T05:02:51.469Z,1016.45
2019-01-25T05:03:51.658Z,1016.5
2019-01-25T05:04:51.525Z,1016.52
2019-01-25T05:05:51.696Z,1016.52
2019-01-25T05:06:51.707Z,1016.51
2019-01-25T05:07:53.383Z,1016.55
2019-01-25T05:08:51.619Z,1016.52
2019-01-25T05:09:51.438Z,1016.59
2019-01-25T05:10:52.077Z,1016.62
2019-01-25T05:11:51.459Z,1016.62
2019-01-25T05:12:53.294Z,1016.62
2019-01-25T05:13:51.566Z,1016.62
2019-01-25T05:14:51.528Z,1016.58
2019-01-25T05:15:51.681Z,1016.61
2019-01-25T05:16:51.685Z,1016.64
2019-01-25T05:17:51.708Z,1016.66
2019-01-25T05:18:51.444Z,1016.68
2019-01-25T05:19:51.498Z,1016.66
2019-01-25T05:20:51.521Z,1016.71
2019-01-25T05:21:51.405Z,1016.71
2019-01-25T05:22:51.615Z,1016.7
2019-01-25T05:23:51.824Z,1016.71
2019-01-25T05:24:51.548Z,1016.75
2019-01-25T05:25:51.675Z,1016.76
2019-01-25T05:26:51.742Z,1016.8
2019-01-25T05:27:51.412Z,1016.81
2019-01-25T05:28:51.668Z,1016.86
2019-01-25T05:29:51.428Z,1016.87
2019-01-25T05:30:52.283Z,1016.85
2019-01-25T05:31:51.504Z,1016.83
2019-01-25T05:32:51.781Z,1016.82
2019-01-25T05:33:51.413Z,1016.83
2019-01-25T05:34:51.624Z,1016.81
2019-01-25T05:35:51.573Z,1016.85
2019-01-25T05:36:51.436Z,1016.84
2019-01-25T05:37:51.724Z,1016.82
2019-01-25T05:38:51.741Z,1016.8
2019-01-25T05:39:51.502Z,1016.78
2019-01-25T05:40:51.610Z,1016.74
2019-01-25T05:41:52.056Z,1016.77
2019-01-25T05:42:52.813Z,1016.75
2019-01-25T05:43:51.782Z,1016.75
2019-01-25T05:44:52.416Z,1016.78
2019-01-25T05:45:54.542Z,1016.76
2019-01-25T05:46:51.521Z,1016.76
2019-01-25T05:47:51.427Z,1016.78
2019-01-25T05:48:51.739Z,1016.74
2019-01-25T05:49:51.415Z,1016.78
2019-01-25T05:50:51.429Z,1016.8
2019-01-25T05:51:51.438Z,1016.82
2019-01-25T05:52:51.466Z,1016.8
2019-01-25T05:53:52.318Z,1016.84
2019-01-25T05:54:51.425Z,1016.83
2019-01-25T05:55:51.567Z,1016.85
2019-01-25T05:56:51.413Z,1016.87
2019-01-25T05:57:51.581Z,1016.92
2019-01-25T05:58:51.397Z,1016.9
2019-01-25T05:59:51.414Z,1016.85
2019-01-25T06:00:51.474Z,1016.86
2019-01-25T06:01:51.458Z,1016.83
2019-01-25T06:02:51.388Z,1016.84
2019-01-25T06:03:51.342Z,1016.83
2019-01-25T06:04:51.397Z,1016.87
2019-01-25T06:05:51.866Z,1016.86
2019-01-25T06:06:51.308Z,1016.89
2019-01-25T06:07:51.322Z,1016.93
2019-01-25T06:08:51.536Z,1016.91
2019-01-25T06:09:51.673Z,1016.94
2019-01-25T06:10:51.517Z,1016.94
2019-01-25T06:11:51.529Z,1016.92
2019-01-25T06:12:51.527Z,1016.97
2019-01-25T06:13:51.515Z,1016.97
2019-01-25T06:14:51.448Z,1016.95
2019-01-25T06:15:51.816Z,1016.97
2019-01-25T06:16:51.728Z,1016.93
2019-01-25T06:17:51.471Z,1016.91
2019-01-25T06:18:52.329Z,1016.88
2019-01-25T06:19:51.404Z,1016.86
2019-01-25T06:20:51.722Z,1016.88
2019-01-25T06:21:51.498Z,1016.9
2019-01-25T06:22:51.446Z,1016.85
2019-01-25T06:23:51.662Z,1016.9
2019-01-25T06:24:51.369Z,1016.9
2019-01-25T06:25:51.408Z,1016.93
2019-01-25T06:26:51.387Z,1016.97
2019-01-25T06:27:51.897Z,1016.9
2019-01-25T06:28:51.568Z,1016.88
2019-01-25T06:29:51.554Z,1016.96
2019-01-25T06:30:52.325Z,1016.99
2019-01-25T06:31:51.542Z,1017.01
2019-01-25T06:32:51.464Z,1017.06
2019-01-25T06:33:51.488Z,1017.04
2019-01-25T06:34:51.351Z,1017.04
2019-01-25T06:35:51.468Z,1017.06
2019-01-25T06:36:51.637Z,1017.1
2019-01-25T06:37:51.303Z,1017.08
2019-01-25T06:38:51.276Z,1017.15
2019-01-25T06:39:51.332Z,1017.16
2019-01-25T06:40:51.366Z,1017.19
2019-01-25T06:41:51.670Z,1017.2
2019-01-25T06:42:51.472Z,1017.23
2019-01-25T06:43:51.682Z,1017.24
2019-01-25T06:44:51.337Z,1017.23
2019-01-25T06:45:51.285Z,1017.24
2019-01-25T06:46:52.254Z,1017.28
2019-01-25T06:47:51.850Z,1017.28
2019-01-25T06:48:51.423Z,1017.27
2019-01-25T06:49:51.395Z,1017.28
2019-01-25T06:50:51.729Z,1017.3
2019-01-25T06:51:51.642Z,1017.32
2019-01-25T06:52:51.421Z,1017.32
2019-01-25T06:53:51.539Z,1017.3
2019-01-25T06:54:51.243Z,1017.27
2019-01-25T06:55:51.364Z,1017.3
2019-01-25T06:56:51.277Z,1017.29
2019-01-25T06:57:51.463Z,1017.37
2019-01-25T06:58:51.693Z,1017.42
2019-01-25T06:59:51.330Z,1017.4
2019-01-25T07:00:51.628Z,1017.37
2019-01-25T07:01:51.836Z,1017.32
2019-01-25T07:02:51.521Z,1017.36
2019-01-25T07:03:51.296Z,1017.39
2019-01-25T07:04:52.830Z,1017.44
2019-01-25T07:05:51.617Z,1017.39
2019-01-25T07:06:51.289Z,1017.43
2019-01-25T07:07:51.742Z,1017.4
2019-01-25T07:08:53.065Z,1017.41
2019-01-25T07:09:51.750Z,1017.39
2019-01-25T07:10:51.315Z,1017.38
2019-01-25T07:11:52.172Z,1017.4
2019-01-25T07:12:51.262Z,1017.41
2019-01-25T07:13:51.495Z,1017.41
2019-01-25T07:14:51.251Z,1017.48
2019-01-25T07:15:51.797Z,1017.49
2019-01-25T07:16:51.332Z,1017.49
2019-01-25T07:17:51.143Z,1017.5
2019-01-25T07:18:51.420Z,1017.52
2019-01-25T07:19:51.520Z,1017.57
2019-01-25T07:20:51.325Z,1017.49
2019-01-25T07:21:51.220Z,1017.53
2019-01-25T07:22:51.563Z,1017.5
2019-01-25T07:23:51.288Z,1017.53
2019-01-25T07:24:57.458Z,1017.55
2019-01-25T07:25:51.282Z,1017.58
2019-01-25T07:26:51.193Z,1017.6
2019-01-25T07:27:51.689Z,1017.66
2019-01-25T07:28:51.348Z,1017.71
2019-01-25T07:29:51.234Z,1017.69
2019-01-25T07:30:51.252Z,1017.68
2019-01-25T07:31:51.350Z,1017.69
2019-01-25T07:32:51.267Z,1017.71
2019-01-25T07:33:51.335Z,1017.66
2019-01-25T07:34:51.339Z,1017.67
2019-01-25T07:35:51.672Z,1017.68
2019-01-25T07:36:52.200Z,1017.69
2019-01-25T07:37:51.243Z,1017.73
2019-01-25T07:38:51.207Z,1017.69
2019-01-25T07:39:51.273Z,1017.69
2019-01-25T07:40:51.269Z,1017.7
2019-01-25T07:41:55.016Z,1017.66
2019-01-25T07:42:51.236Z,1017.69
2019-01-25T07:43:51.192Z,1017.69
2019-01-25T07:44:51.993Z,1017.69
2019-01-25T07:45:51.275Z,1017.68
2019-01-25T07:46:51.190Z,1017.67
2019-01-25T07:47:51.305Z,1017.7
2019-01-25T07:48:51.252Z,1017.7
2019-01-25T07:49:51.216Z,1017.71
2019-01-25T07:50:51.174Z,1017.74
2019-01-25T07:51:53.017Z,1017.71
2019-01-25T07:52:51.235Z,1017.7
2019-01-25T07:53:51.889Z,1017.68
2019-01-25T07:54:51.648Z,1017.69
2019-01-25T07:55:51.165Z,1017.71
2019-01-25T07:56:51.408Z,1017.71
2019-01-25T07:57:51.467Z,1017.7
2019-01-25T07:58:51.476Z,1017.68
2019-01-25T07:59:51.325Z,1017.69
2019-01-25T08:00:51.448Z,1017.77
2019-01-25T08:01:51.220Z,1017.76
2019-01-25T08:02:51.233Z,1017.74
2019-01-25T08:03:53.148Z,1017.71
2019-01-25T08:04:51.982Z,1017.71
2019-01-25T08:05:51.229Z,1017.76
2019-01-25T08:06:51.259Z,1017.73
2019-01-25T08:07:51.329Z,1017.81
2019-01-25T08:08:51.541Z,1017.77
2019-01-25T08:09:52.297Z,1017.76
2019-01-25T08:10:51.378Z,1017.76
2019-01-25T08:11:51.363Z,1017.71
2019-01-25T08:12:51.182Z,1017.69
2019-01-25T08:13:51.234Z,1017.75
2019-01-25T08:14:51.603Z,1017.75
2019-01-25T08:15:52.269Z,1017.79
2019-01-25T08:16:54.102Z,1017.81
2019-01-25T08:17:51.374Z,1017.83
2019-01-25T08:18:52.067Z,1017.81
2019-01-25T08:19:51.418Z,1017.83
2019-01-25T08:20:51.144Z,1017.82
2019-01-25T08:21:51.185Z,1017.86
2019-01-25T08:22:51.531Z,1017.85
2019-01-25T08:23:51.167Z,1017.86
2019-01-25T08:24:51.999Z,1017.86
2019-01-25T08:25:51.780Z,1017.86
2019-01-25T08:26:51.584Z,1017.88
2019-01-25T08:27:51.399Z,1017.86
2019-01-25T08:28:51.306Z,1017.87
2019-01-25T08:29:51.174Z,1017.83
2019-01-25T08:30:51.740Z,1017.85
2019-01-25T08:31:52.156Z,1017.87
2019-01-25T08:32:52.012Z,1017.85
2019-01-25T08:33:51.885Z,1017.91
2019-01-25T08:34:51.182Z,1017.92
2019-01-25T08:35:51.341Z,1017.95
2019-01-25T08:36:51.261Z,1017.96
2019-01-25T08:37:51.324Z,1017.98
2019-01-25T08:38:51.451Z,1017.93
2019-01-25T08:39:51.071Z,1017.91
2019-01-25T08:40:51.094Z,1017.89
2019-01-25T08:41:51.478Z,1017.89
2019-01-25T08:42:51.472Z,1017.89
2019-01-25T08:43:51.312Z,1017.88
2019-01-25T08:44:51.136Z,1017.8
2019-01-25T08:45:51.227Z,1017.81
2019-01-25T08:46:51.163Z,1017.81
2019-01-25T08:47:51.363Z,1017.82
2019-01-25T08:48:51.208Z,1017.82
2019-01-25T08:49:58.257Z,1017.82
2019-01-25T08:50:51.577Z,1017.83
2019-01-25T08:51:51.264Z,1017.9
2019-01-25T08:52:51.538Z,1017.94
2019-01-25T08:53:51.111Z,1017.94
2019-01-25T08:54:51.185Z,1018
2019-01-25T08:55:51.277Z,1017.98
2019-01-25T08:56:51.271Z,1018.01
2019-01-25T08:57:51.421Z,1018.03
2019-01-25T08:58:51.155Z,1017.96
2019-01-25T08:59:51.308Z,1018.01
2019-01-25T09:00:52.109Z,1018.05
2019-01-25T09:01:51.613Z,1018.06
2019-01-25T09:02:51.050Z,1018.02
2019-01-25T09:03:51.154Z,1017.98
2019-01-25T09:04:51.229Z,1017.97
2019-01-25T09:05:51.213Z,1017.97
2019-01-25T09:06:51.242Z,1018
2019-01-25T09:07:51.358Z,1018.02
2019-01-25T09:08:51.470Z,1018.01
2019-01-25T09:09:51.444Z,1018.03
2019-01-25T09:10:51.357Z,1018.02
2019-01-25T09:11:51.070Z,1018.01
2019-01-25T09:12:51.201Z,1018.03
2019-01-25T09:13:51.257Z,1017.98
2019-01-25T09:14:51.490Z,1017.97
2019-01-25T09:15:51.077Z,1018.01
2019-01-25T09:16:51.257Z,1018.02
2019-01-25T09:17:51.299Z,1018.04
2019-01-25T09:18:51.169Z,1018.09
2019-01-25T09:19:51.726Z,1018.05
2019-01-25T09:20:51.176Z,1018.07
2019-01-25T09:21:51.171Z,1018.11
2019-01-25T09:22:51.104Z,1018.06
2019-01-25T09:23:51.495Z,1018.1
2019-01-25T09:24:51.090Z,1018.11
2019-01-25T09:25:51.257Z,1018.19
2019-01-25T09:26:51.028Z,1018.17
2019-01-25T09:27:51.227Z,1018.19
2019-01-25T09:28:51.389Z,1018.25
2019-01-25T09:29:51.126Z,1018.24
2019-01-25T09:30:51.215Z,1018.25
2019-01-25T09:31:51.035Z,1018.23
2019-01-25T09:32:51.043Z,1018.24
2019-01-25T09:33:51.028Z,1018.24
2019-01-25T09:34:51.124Z,1018.28
2019-01-25T09:35:51.119Z,1018.29
2019-01-25T09:36:51.535Z,1018.32
2019-01-25T09:37:51.184Z,1018.33
2019-01-25T09:38:51.075Z,1018.33
2019-01-25T09:39:51.200Z,1018.35
2019-01-25T09:40:52.815Z,1018.37
2019-01-25T09:41:50.799Z,1018.38
2019-01-25T09:42:51.004Z,1018.36
2019-01-25T09:43:51.025Z,1018.38
2019-01-25T09:44:51.089Z,1018.39
2019-01-25T09:45:51.504Z,1018.42
2019-01-25T09:46:51.447Z,1018.45
2019-01-25T09:47:51.307Z,1018.48
2019-01-25T09:48:51.158Z,1018.5
2019-01-25T09:49:51.063Z,1018.48
2019-01-25T09:50:53.114Z,1018.46
2019-01-25T09:51:51.435Z,1018.44
2019-01-25T09:52:51.344Z,1018.45
2019-01-25T09:53:52.568Z,1018.47
2019-01-25T09:54:51.447Z,1018.44
2019-01-25T09:55:51.243Z,1018.44
2019-01-25T09:56:50.942Z,1018.4
2019-01-25T09:57:51.018Z,1018.36
2019-01-25T09:58:51.047Z,1018.42
2019-01-25T09:59:51.323Z,1018.38
2019-01-25T10:00:51.031Z,1018.38
2019-01-25T10:01:51.558Z,1018.37
2019-01-25T10:02:51.312Z,1018.4
2019-01-25T10:03:50.958Z,1018.42
2019-01-25T10:04:51.059Z,1018.44
2019-01-25T10:05:51.231Z,1018.43
2019-01-25T10:06:51.217Z,1018.48
2019-01-25T10:07:51.434Z,1018.45
2019-01-25T10:08:51.376Z,1018.45
2019-01-25T10:09:51.335Z,1018.44
2019-01-25T10:10:50.946Z,1018.41
2019-01-25T10:11:51.256Z,1018.41
2019-01-25T10:12:50.929Z,1018.35
2019-01-25T10:13:50.974Z,1018.34
2019-01-25T10:14:51.058Z,1018.34
2019-01-25T10:15:50.986Z,1018.33
2019-01-25T10:16:51.606Z,1018.34
2019-01-25T10:17:51.060Z,1018.33
2019-01-25T10:18:51.003Z,1018.34
2019-01-25T10:19:51.090Z,1018.28
2019-01-25T10:20:50.989Z,1018.27
2019-01-25T10:21:50.874Z,1018.22
2019-01-25T10:22:50.932Z,1018.25
2019-01-25T10:23:51.054Z,1018.25
2019-01-25T10:24:50.956Z,1018.2
2019-01-25T10:25:51.144Z,1018.2
2019-01-25T10:26:51.695Z,1018.17
2019-01-25T10:27:51.722Z,1018.14
2019-01-25T10:28:51.353Z,1018.15
2019-01-25T10:29:51.579Z,1018.13
2019-01-25T10:30:50.997Z,1018.16
2019-01-25T10:31:51.061Z,1018.22
2019-01-25T10:32:51.298Z,1018.19
2019-01-25T10:33:52.744Z,1018.22
2019-01-25T10:34:52.715Z,1018.23
2019-01-25T10:35:51.200Z,1018.26
2019-01-25T10:36:51.326Z,1018.19
2019-01-25T10:37:51.158Z,1018.23
2019-01-25T10:38:51.144Z,1018.18
2019-01-25T10:39:51.349Z,1018.21
2019-01-25T10:40:51.103Z,1018.21
2019-01-25T10:41:51.027Z,1018.2
2019-01-25T10:42:53.884Z,1018.25
2019-01-25T10:43:51.002Z,1018.24
2019-01-25T10:44:51.382Z,1018.21
2019-01-25T10:45:51.007Z,1018.2
2019-01-25T10:46:52.480Z,1018.14
2019-01-25T10:47:51.300Z,1018.18
2019-01-25T10:48:51.309Z,1018.17
2019-01-25T10:49:51.191Z,1018.19
2019-01-25T10:50:52.723Z,1018.15
2019-01-25T10:52:51.134Z,1018.21
2019-01-25T10:53:50.991Z,1018.2
2019-01-25T10:54:51.310Z,1018.18
2019-01-25T10:55:50.982Z,1018.21
2019-01-25T10:56:51.365Z,1018.23
2019-01-25T10:57:51.270Z,1018.24
2019-01-25T10:58:50.867Z,1018.23
2019-01-25T10:59:51.037Z,1018.22
2019-01-25T11:00:51.594Z,1018.21
2019-01-25T11:01:51.037Z,1018.19
2019-01-25T11:02:58.599Z,1018.17
2019-01-25T11:03:51.031Z,1018.17
2019-01-25T11:04:51.121Z,1018.14
2019-01-25T11:05:50.913Z,1018.15
2019-01-25T11:06:51.235Z,1018.17
2019-01-25T11:07:51.136Z,1018.16
2019-01-25T11:08:50.907Z,1018.16
2019-01-25T11:09:50.868Z,1018.13
2019-01-25T11:10:51.169Z,1018.1
2019-01-25T11:11:51.497Z,1018.1
2019-01-25T11:12:50.949Z,1018.04
2019-01-25T11:13:51.085Z,1018.08
2019-01-25T11:14:50.962Z,1018.07
2019-01-25T11:15:51.102Z,1018.06
2019-01-25T11:16:50.990Z,1018
2019-01-25T11:17:51.025Z,1018.01
2019-01-25T11:18:51.030Z,1018.02
2019-01-25T11:19:51.029Z,1018.07
2019-01-25T11:20:50.980Z,1018
2019-01-25T11:21:51.256Z,1018.01
2019-01-25T11:22:51.024Z,1018.01
2019-01-25T11:23:51.585Z,1018.04
2019-01-25T11:24:51.064Z,1018.03
2019-01-25T11:25:50.844Z,1018.03
2019-01-25T11:26:51.194Z,1018.04
2019-01-25T11:27:50.838Z,1017.97
2019-01-25T11:28:51.118Z,1018.01
2019-01-25T11:29:51.693Z,1018.03
2019-01-25T11:30:51.066Z,1018.03
2019-01-25T11:31:51.021Z,1018.01
2019-01-25T11:32:50.927Z,1018.01
2019-01-25T11:33:50.984Z,1018.02
2019-01-25T11:34:50.849Z,1018.03
2019-01-25T11:35:51.099Z,1018.06
2019-01-25T11:36:50.938Z,1018.04
2019-01-25T11:37:51.126Z,1017.98
2019-01-25T11:38:50.989Z,1017.99
2019-01-25T11:39:50.966Z,1017.97
2019-01-25T11:40:50.857Z,1017.92
2019-01-25T11:41:51.391Z,1017.92
2019-01-25T11:42:51.010Z,1017.93
2019-01-25T11:43:51.508Z,1017.95
2019-01-25T11:44:51.050Z,1017.98
2019-01-25T11:45:54.530Z,1017.92
2019-01-25T11:46:50.947Z,1017.94
2019-01-25T11:47:50.789Z,1017.96
2019-01-25T11:48:51.031Z,1017.95
2019-01-25T11:49:51.269Z,1018.01
2019-01-25T11:50:51.026Z,1017.98
2019-01-25T11:51:51.081Z,1017.92
2019-01-25T11:52:50.789Z,1017.95
2019-01-25T11:53:51.395Z,1017.92
2019-01-25T11:54:50.895Z,1017.88
2019-01-25T11:55:51.003Z,1017.91
2019-01-25T11:56:50.787Z,1017.87
2019-01-25T11:57:50.803Z,1017.92
2019-01-25T11:58:50.295Z,1017.9
2019-01-25T11:59:51.136Z,1017.95
2019-01-25T12:00:50.933Z,1017.93
2019-01-25T12:02:51.256Z,1017.92
2019-01-25T12:03:51.253Z,1017.91
2019-01-25T12:04:50.963Z,1017.91
2019-01-25T12:05:51.060Z,1017.91
2019-01-25T12:06:50.779Z,1017.9
2019-01-25T12:07:51.086Z,1017.89
2019-01-25T12:08:50.978Z,1017.86
2019-01-25T12:09:51.100Z,1017.85
2019-01-25T12:10:50.867Z,1017.82